sensor_id;sensor_type;location;lat;lon;timestamp;temperature;humidity
15690;DHT22;7945;48.816;11.506;2022-11-15T00:00:46;6.80;99.90
15690;DHT22;7945;48.816;11.506;2022-11-15T00:03:14;6.70;99.90
15690;DHT22;7945;48.816;11.506;2022-11-15T00:05:42;6.70;99.90
15690;DHT22;7945;48.816;11.506;2022-11-15T00:08:10;6.70;99.90
15690;DHT22;7945;48.816;11.506;2022-11-15T00:10:37;6.60;99.90
15690;DHT22;7945;48.816;11.506;2022-11-15T00:13:05;6.60;99.90
15690;DHT22;7945;48.816;11.506;2022-11-15T00:15:34;6.60;99.90
15690;DHT22;7945;48.816;11.506;2022-11-15T00:18:01;6.60;99.90
15690;DHT22;7945;48.816;11.506;2022-11-15T00:20:28;6.60;99.90
15690;DHT22;7945;48.816;11.506;2022-11-15T00:22:56;6.60;99.90
15690;DHT22;7945;48.816;11.506;2022-11-15T00:25:23;6.60;99.90
15690;DHT22;7945;48.816;11.506;2022-11-15T00:27:50;6.90;99.90
15690;DHT22;7945;48.816;11.506;2022-11-15T00:30:18;6.70;99.90
15690;DHT22;7945;48.816;11.506;2022-11-15T00:32:44;6.70;99.90
15690;DHT22;7945;48.816;11.506;2022-11-15T00:35:11;6.70;99.90
15690;DHT22;7945;48.816;11.506;2022-11-15T00:37:38;6.80;99.90
15690;DHT22;7945;48.816;11.506;2022-11-15T00:40:07;6.80;99.90
15690;DHT22;7945;48.816;11.506;2022-11-15T00:42:34;6.80;99.90
15690;DHT22;7945;48.816;11.506;2022-11-15T00:45:01;6.90;99.90
15690;DHT22;7945;48.816;11.506;2022-11-15T00:47:28;6.90;99.90
15690;DHT22;7945;48.816;11.506;2022-11-15T00:49:55;6.90;99.90
15690;DHT22;7945;48.816;11.506;2022-11-15T00:52:21;7.00;99.90
15690;DHT22;7945;48.816;11.506;2022-11-15T00:54:48;7.00;99.90
15690;DHT22;7945;48.816;11.506;2022-11-15T00:57:16;6.90;99.90
15690;DHT22;7945;48.816;11.506;2022-11-15T00:59:43;6.90;99.90
15690;DHT22;7945;48.816;11.506;2022-11-15T01:02:10;6.90;99.90
15690;DHT22;7945;48.816;11.506;2022-11-15T01:04:37;6.90;99.90
15690;DHT22;7945;48.816;11.506;2022-11-15T01:07:03;6.90;99.90
15690;DHT22;7945;48.816;11.506;2022-11-15T01:09:30;6.90;99.90
15690;DHT22;7945;48.816;11.506;2022-11-15T01:11:57;6.90;99.90
15690;DHT22;7945;48.816;11.506;2022-11-15T01:14:25;6.90;99.90
15690;DHT22;7945;48.816;11.506;2022-11-15T01:16:52;6.90;99.90
15690;DHT22;7945;48.816;11.506;2022-11-15T01:19:19;6.80;99.90
15690;DHT22;7945;48.816;11.506;2022-11-15T01:21:48;6.80;99.90
15690;DHT22;7945;48.816;11.506;2022-11-15T01:24:15;6.80;99.90
15690;DHT22;7945;48.816;11.506;2022-11-15T01:26:42;6.80;99.90
15690;DHT22;7945;48.816;11.506;2022-11-15T01:29:09;6.80;99.90
15690;DHT22;7945;48.816;11.506;2022-11-15T01:31:37;6.80;99.90
15690;DHT22;7945;48.816;11.506;2022-11-15T01:34:04;6.70;99.90
15690;DHT22;7945;48.816;11.506;2022-11-15T01:36:30;6.70;99.90
15690;DHT22;7945;48.816;11.506;2022-11-15T01:38:58;6.70;99.90
15690;DHT22;7945;48.816;11.506;2022-11-15T01:41:26;6.60;99.90
15690;DHT22;7945;48.816;11.506;2022-11-15T01:43:55;6.60;99.90
15690;DHT22;7945;48.816;11.506;2022-11-15T01:46:27;6.60;99.90
15690;DHT22;7945;48.816;11.506;2022-11-15T01:49:00;6.60;99.90
15690;DHT22;7945;48.816;11.506;2022-11-15T01:51:30;6.80;99.90
15690;DHT22;7945;48.816;11.506;2022-11-15T01:54:00;6.60;99.90
15690;DHT22;7945;48.816;11.506;2022-11-15T01:56:31;6.60;99.90
15690;DHT22;7945;48.816;11.506;2022-11-15T01:59:03;6.50;99.90
15690;DHT22;7945;48.816;11.506;2022-11-15T02:01:31;6.50;99.90
15690;DHT22;7945;48.816;11.506;2022-11-15T02:04:04;6.60;99.90
15690;DHT22;7945;48.816;11.506;2022-11-15T02:06:34;6.60;99.90
15690;DHT22;7945;48.816;11.506;2022-11-15T02:09:01;6.60;99.90
15690;DHT22;7945;48.816;11.506;2022-11-15T02:11:28;6.60;99.90
15690;DHT22;7945;48.816;11.506;2022-11-15T02:13:56;6.60;99.90
15690;DHT22;7945;48.816;11.506;2022-11-15T02:16:29;6.60;99.90
15690;DHT22;7945;48.816;11.506;2022-11-15T02:19:13;6.60;99.90
15690;DHT22;7945;48.816;11.506;2022-11-15T02:21:52;6.60;99.90
15690;DHT22;7945;48.816;11.506;2022-11-15T02:24:53;6.60;99.90
15690;DHT22;7945;48.816;11.506;2022-11-15T02:27:46;6.60;99.90
15690;DHT22;7945;48.816;11.506;2022-11-15T02:30:29;6.60;99.90
15690;DHT22;7945;48.816;11.506;2022-11-15T02:33:03;6.60;99.90
15690;DHT22;7945;48.816;11.506;2022-11-15T02:35:40;6.60;99.90
15690;DHT22;7945;48.816;11.506;2022-11-15T02:38:16;6.60;99.90
15690;DHT22;7945;48.816;11.506;2022-11-15T02:40:52;6.60;99.90
15690;DHT22;7945;48.816;11.506;2022-11-15T02:43:26;6.50;99.90
15690;DHT22;7945;48.816;11.506;2022-11-15T02:46:18;6.50;99.90
15690;DHT22;7945;48.816;11.506;2022-11-15T02:48:48;6.50;99.90
15690;DHT22;7945;48.816;11.506;2022-11-15T02:51:16;6.40;99.90
15690;DHT22;7945;48.816;11.506;2022-11-15T02:53:43;6.40;99.90
15690;DHT22;7945;48.816;11.506;2022-11-15T02:56:11;6.40;99.90
15690;DHT22;7945;48.816;11.506;2022-11-15T02:58:52;6.40;99.90
15690;DHT22;7945;48.816;11.506;2022-11-15T03:01:34;6.40;99.90
15690;DHT22;7945;48.816;11.506;2022-11-15T03:04:13;6.40;99.90
15690;DHT22;7945;48.816;11.506;2022-11-15T03:06:48;6.40;99.90
15690;DHT22;7945;48.816;11.506;2022-11-15T03:09:27;6.40;99.90
15690;DHT22;7945;48.816;11.506;2022-11-15T03:11:59;6.40;99.90
15690;DHT22;7945;48.816;11.506;2022-11-15T03:14:30;6.30;99.90
15690;DHT22;7945;48.816;11.506;2022-11-15T03:17:04;6.30;99.90
15690;DHT22;7945;48.816;11.506;2022-11-15T03:19:37;6.30;99.90
15690;DHT22;7945;48.816;11.506;2022-11-15T03:22:10;6.20;99.90
15690;DHT22;7945;48.816;11.506;2022-11-15T03:24:38;6.20;99.90
15690;DHT22;7945;48.816;11.506;2022-11-15T03:27:06;6.10;99.90
15690;DHT22;7945;48.816;11.506;2022-11-15T03:29:38;6.10;99.90
15690;DHT22;7945;48.816;11.506;2022-11-15T03:32:11;6.10;99.90
15690;DHT22;7945;48.816;11.506;2022-11-15T03:34:41;6.10;99.90
15690;DHT22;7945;48.816;11.506;2022-11-15T03:37:10;6.10;99.90
15690;DHT22;7945;48.816;11.506;2022-11-15T03:39:38;6.00;99.90
15690;DHT22;7945;48.816;11.506;2022-11-15T03:42:14;6.00;99.90
15690;DHT22;7945;48.816;11.506;2022-11-15T03:44:48;6.00;99.90
15690;DHT22;7945;48.816;11.506;2022-11-15T03:47:23;6.00;99.90
15690;DHT22;7945;48.816;11.506;2022-11-15T03:49:55;6.00;99.90
15690;DHT22;7945;48.816;11.506;2022-11-15T03:52:24;6.00;99.90
15690;DHT22;7945;48.816;11.506;2022-11-15T03:54:53;6.00;99.90
15690;DHT22;7945;48.816;11.506;2022-11-15T03:57:21;6.00;99.90
15690;DHT22;7945;48.816;11.506;2022-11-15T03:59:48;5.90;99.90
15690;DHT22;7945;48.816;11.506;2022-11-15T04:02:15;5.90;99.90
15690;DHT22;7945;48.816;11.506;2022-11-15T04:04:43;5.90;99.90
15690;DHT22;7945;48.816;11.506;2022-11-15T04:07:10;5.90;99.90
15690;DHT22;7945;48.816;11.506;2022-11-15T04:09:36;5.90;99.90
15690;DHT22;7945;48.816;11.506;2022-11-15T04:12:24;5.90;99.90
15690;DHT22;7945;48.816;11.506;2022-11-15T04:14:57;5.90;99.90
15690;DHT22;7945;48.816;11.506;2022-11-15T04:17:34;5.80;99.90
15690;DHT22;7945;48.816;11.506;2022-11-15T04:20:03;5.70;99.90
15690;DHT22;7945;48.816;11.506;2022-11-15T04:22:47;5.70;99.90
15690;DHT22;7945;48.816;11.506;2022-11-15T04:25:31;5.90;99.90
15690;DHT22;7945;48.816;11.506;2022-11-15T04:27:58;5.80;99.90
15690;DHT22;7945;48.816;11.506;2022-11-15T04:30:25;5.80;99.90
15690;DHT22;7945;48.816;11.506;2022-11-15T04:32:52;5.70;99.90
15690;DHT22;7945;48.816;11.506;2022-11-15T04:35:20;5.60;99.90
15690;DHT22;7945;48.816;11.506;2022-11-15T04:37:46;5.50;99.90
15690;DHT22;7945;48.816;11.506;2022-11-15T04:40:12;5.40;99.90
15690;DHT22;7945;48.816;11.506;2022-11-15T04:42:40;5.40;99.90
15690;DHT22;7945;48.816;11.506;2022-11-15T04:45:08;5.30;99.90
15690;DHT22;7945;48.816;11.506;2022-11-15T04:47:35;5.40;99.90
15690;DHT22;7945;48.816;11.506;2022-11-15T04:50:02;5.40;99.90
15690;DHT22;7945;48.816;11.506;2022-11-15T04:52:30;5.40;99.90
15690;DHT22;7945;48.816;11.506;2022-11-15T04:54:57;5.40;99.90
15690;DHT22;7945;48.816;11.506;2022-11-15T04:57:24;5.40;99.90
15690;DHT22;7945;48.816;11.506;2022-11-15T04:59:51;5.50;99.90
15690;DHT22;7945;48.816;11.506;2022-11-15T05:02:17;5.50;99.90
15690;DHT22;7945;48.816;11.506;2022-11-15T05:04:44;5.50;99.90
15690;DHT22;7945;48.816;11.506;2022-11-15T05:07:10;5.50;99.90
15690;DHT22;7945;48.816;11.506;2022-11-15T05:09:38;5.50;99.90
15690;DHT22;7945;48.816;11.506;2022-11-15T05:12:05;5.50;99.90
15690;DHT22;7945;48.816;11.506;2022-11-15T05:14:32;5.40;99.90
15690;DHT22;7945;48.816;11.506;2022-11-15T05:16:58;5.40;99.90
15690;DHT22;7945;48.816;11.506;2022-11-15T05:19:25;5.50;99.90
15690;DHT22;7945;48.816;11.506;2022-11-15T05:21:52;5.50;99.90
15690;DHT22;7945;48.816;11.506;2022-11-15T05:24:19;5.50;99.90
15690;DHT22;7945;48.816;11.506;2022-11-15T05:26:47;5.50;99.90
15690;DHT22;7945;48.816;11.506;2022-11-15T05:29:13;5.50;99.90
15690;DHT22;7945;48.816;11.506;2022-11-15T05:31:40;5.50;99.90
15690;DHT22;7945;48.816;11.506;2022-11-15T05:34:08;5.50;99.90
15690;DHT22;7945;48.816;11.506;2022-11-15T05:36:36;5.50;99.90
15690;DHT22;7945;48.816;11.506;2022-11-15T05:39:06;5.50;99.90
15690;DHT22;7945;48.816;11.506;2022-11-15T05:41:35;5.40;99.90
15690;DHT22;7945;48.816;11.506;2022-11-15T05:44:06;5.40;99.90
15690;DHT22;7945;48.816;11.506;2022-11-15T05:46:34;5.40;99.90
15690;DHT22;7945;48.816;11.506;2022-11-15T05:49:01;5.30;99.90
15690;DHT22;7945;48.816;11.506;2022-11-15T05:51:29;5.30;99.90
15690;DHT22;7945;48.816;11.506;2022-11-15T05:53:57;5.30;99.90
15690;DHT22;7945;48.816;11.506;2022-11-15T05:56:25;5.30;99.90
15690;DHT22;7945;48.816;11.506;2022-11-15T05:58:52;5.30;99.90
15690;DHT22;7945;48.816;11.506;2022-11-15T06:01:21;5.30;99.90
15690;DHT22;7945;48.816;11.506;2022-11-15T06:03:48;5.30;99.90
15690;DHT22;7945;48.816;11.506;2022-11-15T06:06:15;5.30;99.90
15690;DHT22;7945;48.816;11.506;2022-11-15T06:08:41;5.30;99.90
15690;DHT22;7945;48.816;11.506;2022-11-15T06:11:08;5.20;99.90
15690;DHT22;7945;48.816;11.506;2022-11-15T06:14:49;5.20;99.90
15690;DHT22;7945;48.816;11.506;2022-11-15T06:17:16;5.20;99.90
15690;DHT22;7945;48.816;11.506;2022-11-15T06:19:43;5.30;99.90
15690;DHT22;7945;48.816;11.506;2022-11-15T06:22:09;5.30;99.90
15690;DHT22;7945;48.816;11.506;2022-11-15T06:24:36;5.30;99.90
15690;DHT22;7945;48.816;11.506;2022-11-15T06:27:03;5.30;99.90
15690;DHT22;7945;48.816;11.506;2022-11-15T06:29:30;5.30;99.90
15690;DHT22;7945;48.816;11.506;2022-11-15T06:31:58;5.30;99.90
15690;DHT22;7945;48.816;11.506;2022-11-15T06:34:25;5.40;99.90
15690;DHT22;7945;48.816;11.506;2022-11-15T06:36:51;5.40;99.90
15690;DHT22;7945;48.816;11.506;2022-11-15T06:39:18;5.40;99.90
15690;DHT22;7945;48.816;11.506;2022-11-15T06:41:45;5.30;99.90
15690;DHT22;7945;48.816;11.506;2022-11-15T06:44:12;5.30;99.90
15690;DHT22;7945;48.816;11.506;2022-11-15T06:46:39;5.40;99.90
15690;DHT22;7945;48.816;11.506;2022-11-15T06:49:07;5.40;99.90
15690;DHT22;7945;48.816;11.506;2022-11-15T06:51:34;5.50;99.90
15690;DHT22;7945;48.816;11.506;2022-11-15T06:54:01;5.50;99.90
15690;DHT22;7945;48.816;11.506;2022-11-15T06:56:27;5.50;99.90
15690;DHT22;7945;48.816;11.506;2022-11-15T06:58:55;5.60;99.90
15690;DHT22;7945;48.816;11.506;2022-11-15T07:01:22;5.60;99.90
15690;DHT22;7945;48.816;11.506;2022-11-15T07:03:48;5.50;99.90
15690;DHT22;7945;48.816;11.506;2022-11-15T07:06:17;5.70;99.90
15690;DHT22;7945;48.816;11.506;2022-11-15T07:08:43;5.70;99.90
15690;DHT22;7945;48.816;11.506;2022-11-15T07:11:11;5.90;99.90
15690;DHT22;7945;48.816;11.506;2022-11-15T07:13:37;5.90;99.90
15690;DHT22;7945;48.816;11.506;2022-11-15T07:16:05;5.90;99.90
15690;DHT22;7945;48.816;11.506;2022-11-15T07:18:34;5.90;99.90
15690;DHT22;7945;48.816;11.506;2022-11-15T07:21:02;5.90;99.90
15690;DHT22;7945;48.816;11.506;2022-11-15T07:23:30;6.00;99.90
15690;DHT22;7945;48.816;11.506;2022-11-15T07:25:57;6.00;99.90
15690;DHT22;7945;48.816;11.506;2022-11-15T07:28:24;6.00;99.90
15690;DHT22;7945;48.816;11.506;2022-11-15T07:30:51;6.10;99.90
15690;DHT22;7945;48.816;11.506;2022-11-15T07:33:18;6.10;99.90
15690;DHT22;7945;48.816;11.506;2022-11-15T07:35:45;6.10;99.90
15690;DHT22;7945;48.816;11.506;2022-11-15T07:38:14;6.20;99.90
15690;DHT22;7945;48.816;11.506;2022-11-15T07:40:42;6.20;99.90
15690;DHT22;7945;48.816;11.506;2022-11-15T07:43:09;6.30;99.90
15690;DHT22;7945;48.816;11.506;2022-11-15T07:45:41;6.30;99.90
15690;DHT22;7945;48.816;11.506;2022-11-15T07:48:08;6.40;99.90
15690;DHT22;7945;48.816;11.506;2022-11-15T07:50:34;6.40;99.90
15690;DHT22;7945;48.816;11.506;2022-11-15T07:53:01;6.50;99.90
15690;DHT22;7945;48.816;11.506;2022-11-15T07:55:28;6.60;99.90
15690;DHT22;7945;48.816;11.506;2022-11-15T07:58:01;6.60;99.90
15690;DHT22;7945;48.816;11.506;2022-11-15T08:00:29;6.70;99.90
15690;DHT22;7945;48.816;11.506;2022-11-15T08:03:01;6.80;99.90
15690;DHT22;7945;48.816;11.506;2022-11-15T08:05:28;6.80;99.90
15690;DHT22;7945;48.816;11.506;2022-11-15T08:07:55;6.90;99.90
15690;DHT22;7945;48.816;11.506;2022-11-15T08:10:22;7.00;99.90
15690;DHT22;7945;48.816;11.506;2022-11-15T08:12:56;7.00;99.90
15690;DHT22;7945;48.816;11.506;2022-11-15T08:15:25;7.10;99.90
15690;DHT22;7945;48.816;11.506;2022-11-15T08:17:54;7.10;99.90
15690;DHT22;7945;48.816;11.506;2022-11-15T08:20:21;7.20;99.90
15690;DHT22;7945;48.816;11.506;2022-11-15T08:22:47;7.20;99.90
15690;DHT22;7945;48.816;11.506;2022-11-15T08:25:14;7.20;99.90
15690;DHT22;7945;48.816;11.506;2022-11-15T08:27:41;7.20;99.90
15690;DHT22;7945;48.816;11.506;2022-11-15T08:30:09;7.30;99.90
15690;DHT22;7945;48.816;11.506;2022-11-15T08:32:37;7.30;99.90
15690;DHT22;7945;48.816;11.506;2022-11-15T08:35:05;7.40;99.90
15690;DHT22;7945;48.816;11.506;2022-11-15T08:37:32;7.40;99.90
15690;DHT22;7945;48.816;11.506;2022-11-15T08:39:59;7.40;99.90
15690;DHT22;7945;48.816;11.506;2022-11-15T08:42:25;7.40;99.90
15690;DHT22;7945;48.816;11.506;2022-11-15T08:44:52;7.50;99.90
15690;DHT22;7945;48.816;11.506;2022-11-15T08:47:19;7.60;99.90
15690;DHT22;7945;48.816;11.506;2022-11-15T08:49:47;7.70;99.90
15690;DHT22;7945;48.816;11.506;2022-11-15T08:52:14;7.70;99.90
15690;DHT22;7945;48.816;11.506;2022-11-15T08:54:41;7.90;99.90
15690;DHT22;7945;48.816;11.506;2022-11-15T08:57:07;8.00;99.90
15690;DHT22;7945;48.816;11.506;2022-11-15T08:59:34;8.10;99.90
15690;DHT22;7945;48.816;11.506;2022-11-15T09:02:01;8.20;99.90
15690;DHT22;7945;48.816;11.506;2022-11-15T09:04:28;8.40;99.90
15690;DHT22;7945;48.816;11.506;2022-11-15T09:06:56;8.50;99.90
15690;DHT22;7945;48.816;11.506;2022-11-15T09:09:23;8.70;99.90
15690;DHT22;7945;48.816;11.506;2022-11-15T09:11:50;9.00;99.90
15690;DHT22;7945;48.816;11.506;2022-11-15T09:14:17;9.20;99.90
15690;DHT22;7945;48.816;11.506;2022-11-15T09:16:44;9.20;99.90
15690;DHT22;7945;48.816;11.506;2022-11-15T09:19:10;9.30;99.90
15690;DHT22;7945;48.816;11.506;2022-11-15T09:21:37;9.40;99.90
15690;DHT22;7945;48.816;11.506;2022-11-15T09:24:05;9.40;99.90
15690;DHT22;7945;48.816;11.506;2022-11-15T09:26:32;9.50;99.90
15690;DHT22;7945;48.816;11.506;2022-11-15T09:28:59;9.70;99.90
15690;DHT22;7945;48.816;11.506;2022-11-15T09:31:27;9.80;99.90
15690;DHT22;7945;48.816;11.506;2022-11-15T09:33:54;9.90;99.90
15690;DHT22;7945;48.816;11.506;2022-11-15T09:36:21;10.00;99.90
15690;DHT22;7945;48.816;11.506;2022-11-15T09:38:48;10.00;99.90
15690;DHT22;7945;48.816;11.506;2022-11-15T09:41:32;10.10;99.90
15690;DHT22;7945;48.816;11.506;2022-11-15T09:47:41;10.10;99.90
15690;DHT22;7945;48.816;11.506;2022-11-15T09:50:15;10.20;99.90
15690;DHT22;7945;48.816;11.506;2022-11-15T09:52:44;10.40;99.90
15690;DHT22;7945;48.816;11.506;2022-11-15T09:55:12;10.50;99.90
15690;DHT22;7945;48.816;11.506;2022-11-15T09:57:52;10.60;99.90
15690;DHT22;7945;48.816;11.506;2022-11-15T10:00:23;10.60;99.90
15690;DHT22;7945;48.816;11.506;2022-11-15T10:03:03;10.70;99.90
15690;DHT22;7945;48.816;11.506;2022-11-15T10:05:37;10.60;99.90
15690;DHT22;7945;48.816;11.506;2022-11-15T10:08:18;10.60;99.90
15690;DHT22;7945;48.816;11.506;2022-11-15T10:10:51;10.70;99.90
15690;DHT22;7945;48.816;11.506;2022-11-15T10:13:25;10.70;99.90
15690;DHT22;7945;48.816;11.506;2022-11-15T10:15:53;10.80;99.90
15690;DHT22;7945;48.816;11.506;2022-11-15T10:18:24;10.80;99.90
15690;DHT22;7945;48.816;11.506;2022-11-15T10:20:59;10.90;99.90
15690;DHT22;7945;48.816;11.506;2022-11-15T10:23:27;11.00;99.90
15690;DHT22;7945;48.816;11.506;2022-11-15T10:25:55;11.10;99.90
15690;DHT22;7945;48.816;11.506;2022-11-15T10:28:27;11.20;99.90
15690;DHT22;7945;48.816;11.506;2022-11-15T10:30:56;11.30;99.90
15690;DHT22;7945;48.816;11.506;2022-11-15T10:33:26;11.40;99.90
15690;DHT22;7945;48.816;11.506;2022-11-15T10:36:14;11.40;99.90
15690;DHT22;7945;48.816;11.506;2022-11-15T10:39:02;11.30;99.90
15690;DHT22;7945;48.816;11.506;2022-11-15T10:41:32;11.30;99.90
15690;DHT22;7945;48.816;11.506;2022-11-15T10:47:24;11.30;99.90
15690;DHT22;7945;48.816;11.506;2022-11-15T10:49:57;11.30;99.90
15690;DHT22;7945;48.816;11.506;2022-11-15T10:52:24;11.40;99.90
15690;DHT22;7945;48.816;11.506;2022-11-15T10:54:54;11.50;99.90
15690;DHT22;7945;48.816;11.506;2022-11-15T10:57:23;11.50;99.90
15690;DHT22;7945;48.816;11.506;2022-11-15T10:59:54;11.50;99.90
15690;DHT22;7945;48.816;11.506;2022-11-15T11:02:31;11.50;99.90
15690;DHT22;7945;48.816;11.506;2022-11-15T11:04:59;11.50;99.90
15690;DHT22;7945;48.816;11.506;2022-11-15T11:07:28;11.60;99.90
15690;DHT22;7945;48.816;11.506;2022-11-15T11:10:00;11.60;99.90
15690;DHT22;7945;48.816;11.506;2022-11-15T11:12:29;11.70;99.90
15690;DHT22;7945;48.816;11.506;2022-11-15T11:14:59;11.70;99.90
15690;DHT22;7945;48.816;11.506;2022-11-15T11:17:36;11.80;99.90
15690;DHT22;7945;48.816;11.506;2022-11-15T11:20:11;11.80;99.90
15690;DHT22;7945;48.816;11.506;2022-11-15T11:22:46;11.90;99.90
15690;DHT22;7945;48.816;11.506;2022-11-15T11:25:25;12.00;99.90
15690;DHT22;7945;48.816;11.506;2022-11-15T11:28:05;12.00;99.90
15690;DHT22;7945;48.816;11.506;2022-11-15T11:30:55;12.00;99.90
15690;DHT22;7945;48.816;11.506;2022-11-15T11:33:31;12.00;99.90
15690;DHT22;7945;48.816;11.506;2022-11-15T11:36:11;12.00;99.90
15690;DHT22;7945;48.816;11.506;2022-11-15T11:38:50;12.10;99.90
15690;DHT22;7945;48.816;11.506;2022-11-15T11:41:38;12.20;99.90
15690;DHT22;7945;48.816;11.506;2022-11-15T11:44:16;12.20;99.90
15690;DHT22;7945;48.816;11.506;2022-11-15T11:46:55;12.30;99.90
15690;DHT22;7945;48.816;11.506;2022-11-15T11:49:27;12.30;99.90
15690;DHT22;7945;48.816;11.506;2022-11-15T11:52:02;12.30;99.90
15690;DHT22;7945;48.816;11.506;2022-11-15T11:54:36;12.30;99.90
15690;DHT22;7945;48.816;11.506;2022-11-15T11:57:07;12.40;99.90
15690;DHT22;7945;48.816;11.506;2022-11-15T11:59:41;12.40;99.90
15690;DHT22;7945;48.816;11.506;2022-11-15T12:02:18;12.40;99.90
15690;DHT22;7945;48.816;11.506;2022-11-15T12:04:50;12.40;99.90
15690;DHT22;7945;48.816;11.506;2022-11-15T12:07:21;12.40;99.90
15690;DHT22;7945;48.816;11.506;2022-11-15T12:09:53;12.50;99.90
15690;DHT22;7945;48.816;11.506;2022-11-15T12:12:27;12.50;99.90
15690;DHT22;7945;48.816;11.506;2022-11-15T12:14:59;12.60;99.90
15690;DHT22;7945;48.816;11.506;2022-11-15T12:17:29;12.60;99.90
15690;DHT22;7945;48.816;11.506;2022-11-15T12:19:58;12.60;99.90
15690;DHT22;7945;48.816;11.506;2022-11-15T12:22:33;12.60;99.90
15690;DHT22;7945;48.816;11.506;2022-11-15T12:25:07;12.60;99.90
15690;DHT22;7945;48.816;11.506;2022-11-15T12:27:38;12.60;99.90
15690;DHT22;7945;48.816;11.506;2022-11-15T12:30:11;12.60;99.90
15690;DHT22;7945;48.816;11.506;2022-11-15T12:32:50;12.60;99.90
15690;DHT22;7945;48.816;11.506;2022-11-15T12:35:25;12.70;99.90
15690;DHT22;7945;48.816;11.506;2022-11-15T12:37:54;12.70;99.90
15690;DHT22;7945;48.816;11.506;2022-11-15T12:40:35;12.70;99.90
15690;DHT22;7945;48.816;11.506;2022-11-15T12:46:03;12.70;99.90
15690;DHT22;7945;48.816;11.506;2022-11-15T12:48:57;12.70;99.90
15690;DHT22;7945;48.816;11.506;2022-11-15T12:55:00;12.70;99.90
15690;DHT22;7945;48.816;11.506;2022-11-15T12:57:38;12.70;99.90
15690;DHT22;7945;48.816;11.506;2022-11-15T13:03:30;12.80;99.90
15690;DHT22;7945;48.816;11.506;2022-11-15T13:06:33;12.80;99.90
15690;DHT22;7945;48.816;11.506;2022-11-15T13:08:58;12.80;99.90
15690;DHT22;7945;48.816;11.506;2022-11-15T13:11:47;12.90;99.90
15690;DHT22;7945;48.816;11.506;2022-11-15T13:14:40;12.90;99.90
15690;DHT22;7945;48.816;11.506;2022-11-15T13:17:20;12.90;99.90
15690;DHT22;7945;48.816;11.506;2022-11-15T13:19:53;13.00;99.90
15690;DHT22;7945;48.816;11.506;2022-11-15T13:22:24;13.00;99.90
15690;DHT22;7945;48.816;11.506;2022-11-15T13:25:27;13.10;99.90
15690;DHT22;7945;48.816;11.506;2022-11-15T13:27:54;13.10;99.90
15690;DHT22;7945;48.816;11.506;2022-11-15T13:30:25;13.10;99.90
15690;DHT22;7945;48.816;11.506;2022-11-15T13:32:52;13.10;99.90
15690;DHT22;7945;48.816;11.506;2022-11-15T13:35:21;13.10;99.90
15690;DHT22;7945;48.816;11.506;2022-11-15T13:37:49;13.10;99.90
15690;DHT22;7945;48.816;11.506;2022-11-15T13:40:23;13.10;99.90
15690;DHT22;7945;48.816;11.506;2022-11-15T13:42:50;13.10;99.90
15690;DHT22;7945;48.816;11.506;2022-11-15T13:45:18;13.10;99.90
15690;DHT22;7945;48.816;11.506;2022-11-15T13:47:51;13.10;99.90
15690;DHT22;7945;48.816;11.506;2022-11-15T13:50:20;13.20;99.90
15690;DHT22;7945;48.816;11.506;2022-11-15T13:52:48;13.20;99.90
15690;DHT22;7945;48.816;11.506;2022-11-15T13:55:17;13.20;99.90
15690;DHT22;7945;48.816;11.506;2022-11-15T13:57:49;13.20;99.90
15690;DHT22;7945;48.816;11.506;2022-11-15T14:00:30;13.20;99.90
15690;DHT22;7945;48.816;11.506;2022-11-15T14:03:07;13.20;99.90
15690;DHT22;7945;48.816;11.506;2022-11-15T14:05:35;13.20;99.90
15690;DHT22;7945;48.816;11.506;2022-11-15T14:08:20;13.10;99.90
15690;DHT22;7945;48.816;11.506;2022-11-15T14:10:47;13.10;99.90
15690;DHT22;7945;48.816;11.506;2022-11-15T14:13:29;13.00;99.90
15690;DHT22;7945;48.816;11.506;2022-11-15T14:16:12;13.00;99.90
15690;DHT22;7945;48.816;11.506;2022-11-15T14:18:43;13.00;99.90
15690;DHT22;7945;48.816;11.506;2022-11-15T14:21:10;12.90;99.90
15690;DHT22;7945;48.816;11.506;2022-11-15T14:23:37;12.90;99.90
15690;DHT22;7945;48.816;11.506;2022-11-15T14:26:04;12.80;99.90
15690;DHT22;7945;48.816;11.506;2022-11-15T14:28:33;12.80;99.90
15690;DHT22;7945;48.816;11.506;2022-11-15T14:31:10;12.80;99.90
15690;DHT22;7945;48.816;11.506;2022-11-15T14:33:38;12.80;99.90
15690;DHT22;7945;48.816;11.506;2022-11-15T14:36:10;12.90;99.90
15690;DHT22;7945;48.816;11.506;2022-11-15T14:38:38;12.80;99.90
15690;DHT22;7945;48.816;11.506;2022-11-15T14:41:05;12.80;99.90
15690;DHT22;7945;48.816;11.506;2022-11-15T14:43:33;12.80;99.90
15690;DHT22;7945;48.816;11.506;2022-11-15T14:46:00;12.80;99.90
15690;DHT22;7945;48.816;11.506;2022-11-15T14:48:27;12.70;99.90
15690;DHT22;7945;48.816;11.506;2022-11-15T14:50:54;12.80;99.90
15690;DHT22;7945;48.816;11.506;2022-11-15T14:53:20;12.70;99.90
15690;DHT22;7945;48.816;11.506;2022-11-15T14:55:47;12.70;99.90
15690;DHT22;7945;48.816;11.506;2022-11-15T14:58:14;12.60;99.90
15690;DHT22;7945;48.816;11.506;2022-11-15T15:00:42;12.60;99.90
15690;DHT22;7945;48.816;11.506;2022-11-15T15:03:09;12.50;99.90
15690;DHT22;7945;48.816;11.506;2022-11-15T15:05:38;12.40;99.90
15690;DHT22;7945;48.816;11.506;2022-11-15T15:08:06;12.30;99.90
15690;DHT22;7945;48.816;11.506;2022-11-15T15:10:35;12.30;99.90
15690;DHT22;7945;48.816;11.506;2022-11-15T15:13:03;12.20;99.90
15690;DHT22;7945;48.816;11.506;2022-11-15T15:15:32;12.20;99.90
15690;DHT22;7945;48.816;11.506;2022-11-15T15:18:01;12.10;99.90
15690;DHT22;7945;48.816;11.506;2022-11-15T15:20:29;12.00;99.90
15690;DHT22;7945;48.816;11.506;2022-11-15T15:22:56;11.90;99.90
15690;DHT22;7945;48.816;11.506;2022-11-15T15:25:26;11.90;99.90
15690;DHT22;7945;48.816;11.506;2022-11-15T15:27:53;11.80;99.90
15690;DHT22;7945;48.816;11.506;2022-11-15T15:30:21;11.70;99.90
15690;DHT22;7945;48.816;11.506;2022-11-15T15:32:48;11.70;99.90
15690;DHT22;7945;48.816;11.506;2022-11-15T15:35:17;11.70;99.90
15690;DHT22;7945;48.816;11.506;2022-11-15T15:37:45;11.60;99.90
15690;DHT22;7945;48.816;11.506;2022-11-15T15:40:15;11.50;99.90
15690;DHT22;7945;48.816;11.506;2022-11-15T15:42:42;11.50;99.90
15690;DHT22;7945;48.816;11.506;2022-11-15T15:45:09;11.40;99.90
15690;DHT22;7945;48.816;11.506;2022-11-15T15:47:37;11.40;99.90
15690;DHT22;7945;48.816;11.506;2022-11-15T15:50:24;11.20;99.90
15690;DHT22;7945;48.816;11.506;2022-11-15T15:52:52;11.20;99.90
15690;DHT22;7945;48.816;11.506;2022-11-15T15:55:19;11.10;99.90
15690;DHT22;7945;48.816;11.506;2022-11-15T15:57:46;11.00;99.90
15690;DHT22;7945;48.816;11.506;2022-11-15T16:00:14;11.00;99.90
15690;DHT22;7945;48.816;11.506;2022-11-15T16:02:41;10.90;99.90
15690;DHT22;7945;48.816;11.506;2022-11-15T16:05:09;10.80;99.90
15690;DHT22;7945;48.816;11.506;2022-11-15T16:07:37;10.80;99.90
15690;DHT22;7945;48.816;11.506;2022-11-15T16:10:20;10.70;99.90
15690;DHT22;7945;48.816;11.506;2022-11-15T16:12:48;10.70;99.90
15690;DHT22;7945;48.816;11.506;2022-11-15T16:15:15;10.60;99.90
15690;DHT22;7945;48.816;11.506;2022-11-15T16:17:45;10.60;99.90